createdAt,value
2023-05-29T00:02:04.904Z,101266.06
2023-05-29T00:04:32.728Z,101270.72
2023-05-29T00:07:00.549Z,101270.03
2023-05-29T00:09:29.123Z,101269.84
2023-05-29T00:11:58.299Z,101261.19
2023-05-29T00:14:26.372Z,101264.63
2023-05-29T00:16:54.213Z,101264.28
2023-05-29T00:19:22.384Z,101265.41
2023-05-29T00:21:50.092Z,101262.94
2023-05-29T00:24:18.273Z,101261.66
2023-05-29T00:26:46.957Z,101264.38
2023-05-29T00:29:16.273Z,101269.06
2023-05-29T00:31:44.070Z,101264.19
2023-05-29T00:34:11.912Z,101261.50
2023-05-29T00:36:39.892Z,101263.78
2023-05-29T00:39:07.736Z,101256.28
2023-05-29T00:41:35.511Z,101263.72
2023-05-29T00:44:03.278Z,101264.03
2023-05-29T00:46:33.914Z,101260.88
2023-05-29T00:49:02.787Z,101264.09
2023-05-29T00:51:32.604Z,101269.88
2023-05-29T00:54:01.065Z,101259.56
2023-05-29T00:56:28.926Z,101268.03
2023-05-29T00:58:57.031Z,101265.06
2023-05-29T01:01:25.367Z,101265.63
2023-05-29T01:03:58.193Z,101257.31
2023-05-29T01:06:26.488Z,101261.13
2023-05-29T01:08:54.216Z,101256.84
2023-05-29T01:11:33.691Z,101260.03
2023-05-29T01:14:08.618Z,101255.44
2023-05-29T01:16:40.613Z,101257.38
2023-05-29T01:19:19.913Z,101255.56
2023-05-29T01:22:01.141Z,101254.22
2023-05-29T01:24:39.121Z,101252.25
2023-05-29T01:27:12.218Z,101256.44
2023-05-29T01:29:43.656Z,101251.53
2023-05-29T01:32:12.785Z,101263.16
2023-05-29T01:34:40.825Z,101257.63
2023-05-29T01:37:08.593Z,101269.09
2023-05-29T01:39:36.852Z,101260.09
2023-05-29T01:42:06.449Z,101260.09
2023-05-29T01:44:36.120Z,101259.44
2023-05-29T01:47:05.450Z,101266.34
2023-05-29T01:49:33.877Z,101255.09
2023-05-29T01:52:01.668Z,101258.16
2023-05-29T01:54:29.602Z,101255.97
2023-05-29T01:56:57.526Z,101261.72
2023-05-29T01:59:25.812Z,101252.47
2023-05-29T02:01:54.912Z,101266.22
2023-05-29T02:04:22.766Z,101265.75
2023-05-29T02:06:50.854Z,101260.91
2023-05-29T02:09:19.514Z,101259.19
2023-05-29T02:11:47.307Z,101257.38
2023-05-29T02:14:15.043Z,101253.63
2023-05-29T02:16:45.045Z,101260.34
2023-05-29T02:19:14.325Z,101255.69
2023-05-29T02:21:42.219Z,101266.03
2023-05-29T02:24:09.971Z,101265.69
2023-05-29T02:26:38.845Z,101274.25
2023-05-29T02:29:07.749Z,101270.31
2023-05-29T02:31:35.758Z,101268.28
2023-05-29T02:34:03.523Z,101261.38
2023-05-29T02:36:32.622Z,101264.09
2023-05-29T02:39:00.385Z,101261.50
2023-05-29T02:41:28.114Z,101256.44
2023-05-29T02:43:55.866Z,101252.34
2023-05-29T02:46:23.829Z,101253.50
2023-05-29T02:48:51.581Z,101250.19
2023-05-29T02:51:19.407Z,101244.78
2023-05-29T02:53:49.457Z,101246.28
2023-05-29T02:56:17.776Z,101247.69
2023-05-29T02:58:46.210Z,101242.19
2023-05-29T03:01:13.991Z,101235.50
2023-05-29T03:03:41.928Z,101244.03
2023-05-29T03:06:10.972Z,101235.06
2023-05-29T03:08:40.928Z,101241.44
2023-05-29T03:11:11.919Z,101241.88
2023-05-29T03:13:39.857Z,101241.66
2023-05-29T03:16:09.300Z,101237.88
2023-05-29T03:18:37.188Z,101234.31
2023-05-29T03:21:04.961Z,101238.31
2023-05-29T03:23:32.679Z,101243.66
2023-05-29T03:26:00.459Z,101243.22
2023-05-29T03:28:29.554Z,101248.44
2023-05-29T03:30:57.492Z,101251.88
2023-05-29T03:33:25.351Z,101256.00
2023-05-29T03:35:53.118Z,101244.78
2023-05-29T03:38:20.915Z,101247.56
2023-05-29T03:40:48.705Z,101245.34
2023-05-29T03:43:16.492Z,101251.22
2023-05-29T03:45:45.581Z,101261.81
2023-05-29T03:48:13.367Z,101259.13
2023-05-29T03:50:41.084Z,101271.53
2023-05-29T03:53:08.853Z,101261.91
2023-05-29T03:55:37.021Z,101256.28
2023-05-29T03:58:04.756Z,101271.16
2023-05-29T04:00:32.633Z,101264.69
2023-05-29T04:03:02.219Z,101268.19
2023-05-29T04:05:30.135Z,101274.09
2023-05-29T04:08:14.203Z,101272.47
2023-05-29T04:10:42.904Z,101273.56
2023-05-29T04:13:10.630Z,101272.38
2023-05-29T04:15:38.951Z,101277.88
2023-05-29T04:18:08.210Z,101276.19
2023-05-29T04:20:36.094Z,101272.59
2023-05-29T04:23:04.167Z,101276.56
2023-05-29T04:25:33.220Z,101279.56
2023-05-29T04:28:03.908Z,101280.31
2023-05-29T04:30:33.794Z,101287.28
2023-05-29T04:33:01.920Z,101286.63
2023-05-29T04:35:31.086Z,101292.47
2023-05-29T04:37:58.954Z,101293.75
2023-05-29T04:40:27.456Z,101301.78
2023-05-29T04:42:55.313Z,101297.41
2023-05-29T04:45:23.213Z,101303.72
2023-05-29T04:47:51.039Z,101293.13
2023-05-29T04:50:19.147Z,101302.91
2023-05-29T04:52:48.485Z,101310.34
2023-05-29T04:55:17.505Z,101302.25
2023-05-29T04:57:45.275Z,101309.69
2023-05-29T05:00:15.343Z,101307.59
2023-05-29T05:02:44.875Z,101310.19
2023-05-29T05:05:12.992Z,101310.00
2023-05-29T05:07:40.783Z,101312.75
2023-05-29T05:10:10.776Z,101311.00
2023-05-29T05:12:38.752Z,101314.91
2023-05-29T05:15:07.825Z,101316.13
2023-05-29T05:17:35.609Z,101324.09
2023-05-29T05:20:05.079Z,101328.41
2023-05-29T05:22:32.833Z,101330.94
2023-05-29T05:25:01.542Z,101327.28
2023-05-29T05:27:31.176Z,101334.94
2023-05-29T05:29:58.909Z,101331.34
2023-05-29T05:32:27.018Z,101342.03
2023-05-29T05:34:54.744Z,101342.09
2023-05-29T05:37:24.260Z,101349.69
2023-05-29T05:39:52.075Z,101346.72
2023-05-29T05:42:19.860Z,101344.09
2023-05-29T05:44:49.025Z,101354.13
2023-05-29T05:47:16.789Z,101357.56
2023-05-29T05:49:44.865Z,101360.06
2023-05-29T05:52:12.619Z,101367.19
2023-05-29T05:54:40.358Z,101361.69
2023-05-29T05:57:08.511Z,101353.41
2023-05-29T05:59:36.931Z,101362.63
2023-05-29T06:02:08.647Z,101358.31
2023-05-29T06:04:37.625Z,101371.66
2023-05-29T06:07:05.801Z,101357.66
2023-05-29T06:09:33.566Z,101364.31
2023-05-29T06:12:01.330Z,101367.38
2023-05-29T06:14:29.063Z,101363.19
2023-05-29T06:16:57.415Z,101367.66
2023-05-29T06:19:26.554Z,101369.94
2023-05-29T06:21:54.316Z,101375.72
2023-05-29T06:24:22.072Z,101372.16
2023-05-29T06:26:51.267Z,101377.25
2023-05-29T06:29:18.991Z,101366.09
2023-05-29T06:31:46.901Z,101374.31
2023-05-29T06:34:14.870Z,101376.72
2023-05-29T06:36:44.260Z,101378.53
2023-05-29T06:39:12.157Z,101380.59
2023-05-29T06:41:40.034Z,101379.97
2023-05-29T06:44:07.754Z,101391.50
2023-05-29T06:46:35.619Z,101383.22
2023-05-29T06:49:05.587Z,101388.41
2023-05-29T06:51:35.365Z,101383.84
2023-05-29T06:54:04.828Z,101390.53
2023-05-29T06:56:32.552Z,101387.66
2023-05-29T06:59:00.287Z,101386.22
2023-05-29T07:01:28.075Z,101392.97
2023-05-29T07:03:56.207Z,101392.06
2023-05-29T07:06:23.991Z,101399.00
2023-05-29T07:08:51.736Z,101394.69
2023-05-29T07:11:20.837Z,101397.19
2023-05-29T07:13:48.677Z,101397.28
2023-05-29T07:16:24.366Z,101395.22
2023-05-29T07:18:53.003Z,101395.38
2023-05-29T07:21:21.454Z,101397.13
2023-05-29T07:23:49.308Z,101400.47
2023-05-29T07:26:17.114Z,101398.88
2023-05-29T07:28:46.253Z,101405.97
2023-05-29T07:31:14.009Z,101405.53
2023-05-29T07:33:42.467Z,101414.84
2023-05-29T07:36:10.677Z,101410.13
2023-05-29T07:38:38.578Z,101403.00
2023-05-29T07:41:06.381Z,101402.91
2023-05-29T07:43:34.193Z,101389.63
2023-05-29T07:46:03.746Z,101407.22
2023-05-29T07:48:31.737Z,101409.53
2023-05-29T07:51:00.022Z,101403.50
2023-05-29T07:53:27.785Z,101415.22
2023-05-29T07:55:55.542Z,101405.59
2023-05-29T07:58:23.360Z,101412.56
2023-05-29T08:00:52.014Z,101405.25
2023-05-29T08:03:22.291Z,101405.66
2023-05-29T08:05:50.820Z,101412.06
2023-05-29T08:08:18.776Z,101416.06
2023-05-29T08:10:46.729Z,101421.03
2023-05-29T08:13:14.430Z,101419.13
2023-05-29T08:15:42.191Z,101423.63
2023-05-29T08:18:10.043Z,101421.63
2023-05-29T08:20:39.331Z,101419.59
2023-05-29T08:23:07.362Z,101426.28
2023-05-29T08:25:35.208Z,101413.84
2023-05-29T08:28:03.715Z,101421.47
2023-05-29T08:30:32.124Z,101416.88
2023-05-29T08:33:00.746Z,101410.56
2023-05-29T08:35:28.943Z,101418.53
2023-05-29T08:37:58.078Z,101415.88
2023-05-29T08:40:25.856Z,101414.16
2023-05-29T08:42:59.136Z,101410.84
2023-05-29T08:45:27.299Z,101412.91
2023-05-29T08:47:56.249Z,101420.56
2023-05-29T08:50:24.479Z,101413.56
2023-05-29T08:52:53.255Z,101410.97
2023-05-29T08:55:22.588Z,101417.88
2023-05-29T08:57:51.176Z,101420.81
2023-05-29T09:00:19.544Z,101415.13
2023-05-29T09:02:47.418Z,101423.31
2023-05-29T09:05:15.327Z,101423.59
2023-05-29T09:07:44.776Z,101422.59
2023-05-29T09:10:12.869Z,101423.06
2023-05-29T09:12:42.173Z,101424.78
2023-05-29T09:15:19.490Z,101420.47
2023-05-29T09:17:52.254Z,101424.16
2023-05-29T09:20:23.976Z,101420.81
2023-05-29T09:22:55.702Z,101412.25
2023-05-29T09:25:25.993Z,101414.34
2023-05-29T09:27:57.936Z,101416.75
2023-05-29T09:30:37.161Z,101418.50
2023-05-29T09:33:07.099Z,101407.44
2023-05-29T09:35:39.298Z,101409.81
2023-05-29T09:38:07.742Z,101415.63
2023-05-29T09:40:39.397Z,101413.03
2023-05-29T09:43:17.985Z,101417.34
2023-05-29T09:45:47.274Z,101414.66
2023-05-29T09:48:17.153Z,101415.38
2023-05-29T09:50:48.926Z,101419.81
2023-05-29T09:53:21.236Z,101414.09
2023-05-29T09:55:49.577Z,101408.75
2023-05-29T09:58:20.408Z,101411.59
2023-05-29T10:00:49.575Z,101416.78
2023-05-29T10:03:18.911Z,101404.19
2023-05-29T10:05:53.227Z,101409.50
2023-05-29T10:08:22.378Z,101409.03
2023-05-29T10:10:56.143Z,101408.63
2023-05-29T10:13:27.451Z,101421.69
2023-05-29T10:15:57.075Z,101413.75
2023-05-29T10:18:28.632Z,101412.91
2023-05-29T10:20:59.753Z,101416.47
2023-05-29T10:23:30.192Z,101407.38
2023-05-29T10:26:08.835Z,101411.94
2023-05-29T10:28:42.531Z,101410.78
2023-05-29T10:31:13.224Z,101410.66
2023-05-29T10:33:56.809Z,101414.91
2023-05-29T10:36:27.748Z,101416.34
2023-05-29T10:38:55.535Z,101416.94
2023-05-29T10:41:40.419Z,101410.75
2023-05-29T10:44:42.204Z,101417.09
2023-05-29T10:47:13.303Z,101413.50
2023-05-29T10:49:41.514Z,101419.66
2023-05-29T10:52:12.725Z,101417.66
2023-05-29T10:54:54.057Z,101417.38
2023-05-29T10:57:24.387Z,101419.97
2023-05-29T11:00:04.660Z,101412.47
2023-05-29T11:02:32.796Z,101412.19
2023-05-29T11:05:08.370Z,101421.63
2023-05-29T11:07:37.188Z,101418.25
2023-05-29T11:10:15.882Z,101419.22
2023-05-29T11:12:59.100Z,101421.41
2023-05-29T11:15:28.316Z,101414.66
2023-05-29T11:17:57.084Z,101412.03
2023-05-29T11:20:39.127Z,101415.97
2023-05-29T11:23:09.567Z,101414.63
2023-05-29T11:25:39.044Z,101414.97
2023-05-29T11:28:09.820Z,101412.44
2023-05-29T11:30:49.566Z,101403.28
2023-05-29T11:33:28.020Z,101400.63
2023-05-29T11:35:58.881Z,101408.66
2023-05-29T11:38:27.020Z,101397.59
2023-05-29T11:40:55.793Z,101396.63
2023-05-29T11:43:23.735Z,101399.34
2023-05-29T11:45:52.960Z,101398.25
2023-05-29T11:48:21.103Z,101397.00
2023-05-29T11:50:48.840Z,101390.41
2023-05-29T11:53:17.079Z,101388.34
2023-05-29T11:55:45.778Z,101384.09
2023-05-29T11:58:13.687Z,101384.78
2023-05-29T12:00:43.060Z,101382.13
2023-05-29T12:03:13.283Z,101376.47
2023-05-29T12:05:49.754Z,101378.78
2023-05-29T12:08:17.708Z,101371.66
2023-05-29T12:10:49.529Z,101362.41
2023-05-29T12:13:18.253Z,101372.25
2023-05-29T12:15:46.517Z,101372.00
2023-05-29T12:18:16.372Z,101367.97
2023-05-29T12:20:44.273Z,101365.28
2023-05-29T12:23:13.095Z,101364.25
2023-05-29T12:25:41.162Z,101370.56
2023-05-29T12:28:09.029Z,101375.53
2023-05-29T12:30:40.486Z,101369.59
2023-05-29T12:33:08.629Z,101372.66
2023-05-29T12:35:37.966Z,101368.09
2023-05-29T12:38:09.517Z,101373.69
2023-05-29T12:40:38.194Z,101371.91
2023-05-29T12:43:10.071Z,101362.44
2023-05-29T12:45:37.876Z,101363.78
2023-05-29T12:48:07.125Z,101377.53
2023-05-29T12:50:38.418Z,101362.31
2023-05-29T12:53:08.002Z,101374.78
2023-05-29T12:55:39.475Z,101369.91
2023-05-29T12:58:07.985Z,101363.81
2023-05-29T13:00:36.428Z,101362.41
2023-05-29T13:03:05.048Z,101355.00
2023-05-29T13:05:32.975Z,101353.16
2023-05-29T13:08:02.556Z,101358.66
2023-05-29T13:10:31.257Z,101367.41
2023-05-29T13:13:00.145Z,101365.19
2023-05-29T13:15:28.408Z,101347.00
2023-05-29T13:17:56.239Z,101344.94
2023-05-29T13:20:24.122Z,101356.22
2023-05-29T13:22:52.029Z,101355.59
2023-05-29T13:25:22.404Z,101354.97
2023-05-29T13:27:50.811Z,101356.59
2023-05-29T13:30:18.735Z,101355.03
2023-05-29T13:32:46.649Z,101349.47
2023-05-29T13:35:14.446Z,101341.41
2023-05-29T13:37:42.334Z,101344.66
2023-05-29T13:40:11.195Z,101347.00
2023-05-29T13:42:40.494Z,101347.94
2023-05-29T13:45:09.931Z,101343.66
2023-05-29T13:47:38.213Z,101340.47
2023-05-29T13:50:08.009Z,101345.47
2023-05-29T13:52:35.998Z,101339.75
2023-05-29T13:55:09.338Z,101336.28
2023-05-29T13:57:37.570Z,101330.41
2023-05-29T14:00:08.726Z,101322.78
2023-05-29T14:02:36.785Z,101326.09
2023-05-29T14:05:04.799Z,101326.28
2023-05-29T14:07:32.539Z,101323.53
2023-05-29T14:10:00.394Z,101317.28
2023-05-29T14:12:28.201Z,101321.69
2023-05-29T14:14:55.956Z,101319.66
2023-05-29T14:17:27.094Z,101318.81
2023-05-29T14:19:56.086Z,101314.25
2023-05-29T14:22:23.886Z,101317.59
2023-05-29T14:24:51.628Z,101319.16
2023-05-29T14:27:19.823Z,101316.03
2023-05-29T14:29:48.623Z,101308.50
2023-05-29T14:32:16.363Z,101319.88
2023-05-29T14:34:45.657Z,101320.16
2023-05-29T14:37:13.454Z,101318.63
2023-05-29T14:39:41.210Z,101315.47
2023-05-29T14:42:09.867Z,101312.81
2023-05-29T14:44:37.643Z,101306.28
2023-05-29T14:47:05.729Z,101299.03
2023-05-29T14:49:34.703Z,101297.88
2023-05-29T14:52:05.311Z,101303.53
2023-05-29T14:54:33.145Z,101291.06
2023-05-29T14:57:01.354Z,101285.66
2023-05-29T14:59:29.139Z,101288.56
2023-05-29T15:01:57.954Z,101285.59
2023-05-29T15:04:25.678Z,101276.22
2023-05-29T15:09:44.408Z,101277.34
2023-05-29T15:09:53.344Z,101274.63
2023-05-29T15:12:12.233Z,101287.56
2023-05-29T15:14:39.947Z,101284.06
2023-05-29T15:17:08.082Z,101278.31
2023-05-29T15:19:36.047Z,101286.44
2023-05-29T15:22:03.782Z,101278.03
2023-05-29T15:24:31.577Z,101287.22
2023-05-29T15:27:00.708Z,101283.31
2023-05-29T15:29:28.471Z,101282.38
2023-05-29T15:31:56.251Z,101273.72
2023-05-29T15:34:24.039Z,101279.00
2023-05-29T15:36:51.765Z,101278.84
2023-05-29T15:39:19.605Z,101280.53
2023-05-29T15:41:47.366Z,101276.28
2023-05-29T15:44:16.565Z,101279.53
2023-05-29T15:46:44.490Z,101282.28
2023-05-29T15:49:12.252Z,101276.97
2023-05-29T15:51:42.129Z,101289.81
2023-05-29T15:54:10.200Z,101279.69
2023-05-29T15:56:37.953Z,101270.28
2023-05-29T15:59:06.404Z,101274.72
2023-05-29T16:01:36.582Z,101275.44
2023-05-29T16:04:04.695Z,101275.44
2023-05-29T16:06:33.227Z,101283.97
2023-05-29T16:09:03.396Z,101271.34
2023-05-29T16:11:31.135Z,101275.06
2023-05-29T16:13:58.959Z,101278.31
2023-05-29T16:16:26.904Z,101267.72
2023-05-29T16:18:56.019Z,101269.94
2023-05-29T16:21:23.793Z,101274.22
2023-05-29T16:23:57.666Z,101271.06
2023-05-29T16:26:28.063Z,101266.16
2023-05-29T16:28:56.657Z,101262.31
2023-05-29T16:31:25.287Z,101280.50
2023-05-29T16:33:53.048Z,101271.53
2023-05-29T16:36:22.251Z,101279.69
2023-05-29T16:38:50.643Z,101282.25
2023-05-29T16:41:18.568Z,101273.81
2023-05-29T16:43:46.330Z,101272.44
2023-05-29T16:46:14.268Z,101282.72
2023-05-29T16:48:42.222Z,101282.66
2023-05-29T16:51:11.410Z,101286.91
2023-05-29T16:53:40.588Z,101276.75
2023-05-29T16:56:08.562Z,101281.13
2023-05-29T16:58:36.367Z,101287.19
2023-05-29T17:01:04.216Z,101288.75
2023-05-29T17:03:32.107Z,101290.72
2023-05-29T17:05:59.856Z,101301.44
2023-05-29T17:08:27.680Z,101299.66
2023-05-29T17:10:56.777Z,101294.31
2023-05-29T17:13:24.530Z,101304.38
2023-05-29T17:15:52.276Z,101305.56
2023-05-29T17:18:20.076Z,101311.97
2023-05-29T17:20:48.062Z,101312.06
2023-05-29T17:23:16.012Z,101312.06
2023-05-29T17:25:43.775Z,101310.91
2023-05-29T17:28:12.956Z,101306.78
2023-05-29T17:30:41.065Z,101307.78
2023-05-29T17:33:08.865Z,101305.69
2023-05-29T17:35:36.677Z,101295.59
2023-05-29T17:38:05.041Z,101304.34
2023-05-29T17:40:33.174Z,101310.66
2023-05-29T17:43:00.939Z,101306.41
2023-05-29T17:45:30.043Z,101309.50
2023-05-29T17:47:57.902Z,101310.19
2023-05-29T17:50:25.673Z,101311.19
2023-05-29T17:52:53.431Z,101310.41
2023-05-29T17:55:21.190Z,101310.69
2023-05-29T17:57:49.082Z,101314.75
2023-05-29T18:00:18.191Z,101326.03
2023-05-29T18:02:47.327Z,101323.56
2023-05-29T18:05:15.309Z,101323.91
2023-05-29T18:07:43.027Z,101322.41
2023-05-29T18:10:11.570Z,101335.72
2023-05-29T18:12:45.435Z,101333.03
2023-05-29T18:15:14.894Z,101329.56
2023-05-29T18:17:42.705Z,101325.94
2023-05-29T18:20:14.110Z,101334.78
2023-05-29T18:22:41.925Z,101333.94
2023-05-29T18:25:10.642Z,101334.84
2023-05-29T18:27:38.679Z,101330.09
2023-05-29T18:30:08.184Z,101336.81
2023-05-29T18:32:37.138Z,101342.88
2023-05-29T18:35:05.459Z,101343.69
2023-05-29T18:37:34.571Z,101345.44
2023-05-29T18:40:02.773Z,101343.72
2023-05-29T18:42:30.512Z,101347.88
2023-05-29T18:44:58.420Z,101354.28
2023-05-29T18:47:26.248Z,101350.91
2023-05-29T18:49:55.246Z,101355.75
2023-05-29T18:52:23.718Z,101359.31
2023-05-29T18:54:53.069Z,101371.59
2023-05-29T18:57:20.858Z,101371.47
2023-05-29T18:59:50.498Z,101364.28
2023-05-29T19:02:18.346Z,101375.69
2023-05-29T19:04:46.118Z,101377.34
2023-05-29T19:07:13.830Z,101377.16
2023-05-29T19:09:42.326Z,101376.81
2023-05-29T19:12:12.082Z,101379.19
2023-05-29T19:14:39.838Z,101382.97
2023-05-29T19:17:10.458Z,101386.75
2023-05-29T19:19:40.281Z,101390.66
2023-05-29T19:22:08.638Z,101385.56
2023-05-29T19:24:36.405Z,101390.78
2023-05-29T19:27:04.333Z,101389.44
2023-05-29T19:29:33.464Z,101394.38
2023-05-29T19:32:01.398Z,101393.78
2023-05-29T19:34:29.135Z,101398.16
2023-05-29T19:36:56.898Z,101399.59
2023-05-29T19:39:24.632Z,101403.16
2023-05-29T19:41:52.410Z,101407.31
2023-05-29T19:44:20.222Z,101400.75
2023-05-29T19:46:50.836Z,101416.78
2023-05-29T19:49:19.012Z,101417.31
2023-05-29T19:51:46.765Z,101425.00
2023-05-29T19:54:14.508Z,101422.56
2023-05-29T19:56:42.227Z,101430.69
2023-05-29T19:59:10.097Z,101438.03
2023-05-29T20:01:37.885Z,101445.56
2023-05-29T20:04:07.074Z,101440.91
2023-05-29T20:06:34.894Z,101446.91
2023-05-29T20:09:02.777Z,101444.84
2023-05-29T20:11:31.291Z,101447.22
2023-05-29T20:13:59.152Z,101448.81
2023-05-29T20:16:26.988Z,101449.88
2023-05-29T20:18:54.787Z,101447.81
2023-05-29T20:21:23.979Z,101449.88
2023-05-29T20:23:52.325Z,101449.81
2023-05-29T20:26:20.107Z,101454.25
2023-05-29T20:28:47.865Z,101460.13
2023-05-29T20:31:15.632Z,101464.28
2023-05-29T20:33:44.363Z,101471.94
2023-05-29T20:36:12.179Z,101464.66
2023-05-29T20:38:44.313Z,101476.81
2023-05-29T20:41:12.940Z,101474.59
2023-05-29T20:43:40.874Z,101479.06
2023-05-29T20:46:09.162Z,101478.25
2023-05-29T20:48:37.084Z,101481.84
2023-05-29T20:51:05.210Z,101482.56
2023-05-29T20:53:32.997Z,101483.59
2023-05-29T20:56:02.312Z,101488.59
2023-05-29T20:58:30.447Z,101493.75
2023-05-29T21:00:58.476Z,101495.56
2023-05-29T21:03:26.520Z,101503.97
2023-05-29T21:05:54.415Z,101495.06
2023-05-29T21:08:22.149Z,101490.16
2023-05-29T21:10:49.995Z,101498.91
2023-05-29T21:13:22.380Z,101509.19
2023-05-29T21:15:50.942Z,101511.78
2023-05-29T21:18:18.936Z,101519.16
2023-05-29T21:20:46.728Z,101525.19
2023-05-29T21:23:14.914Z,101525.72
2023-05-29T21:25:42.791Z,101531.69
2023-05-29T21:28:10.545Z,101538.41
2023-05-29T21:30:39.648Z,101533.63
2023-05-29T21:33:08.216Z,101529.13
2023-05-29T21:35:37.783Z,101533.63
2023-05-29T21:38:05.665Z,101546.72
2023-05-29T21:40:33.907Z,101538.16
2023-05-29T21:43:01.969Z,101541.91
2023-05-29T21:45:29.791Z,101545.88
2023-05-29T21:47:59.622Z,101543.03
2023-05-29T21:50:27.399Z,101548.47
2023-05-29T21:52:55.174Z,101550.31
2023-05-29T21:55:22.940Z,101557.03
2023-05-29T21:57:51.794Z,101561.38
2023-05-29T22:00:21.454Z,101559.84
2023-05-29T22:02:49.416Z,101553.88
2023-05-29T22:05:19.052Z,101557.00
2023-05-29T22:07:46.816Z,101560.41
2023-05-29T22:10:14.655Z,101561.66
2023-05-29T22:12:43.297Z,101558.94
2023-05-29T22:15:13.534Z,101567.22
2023-05-29T22:17:43.626Z,101567.00
2023-05-29T22:20:14.235Z,101565.00
2023-05-29T22:22:44.086Z,101568.78
2023-05-29T22:25:13.407Z,101570.59
2023-05-29T22:27:41.270Z,101565.72
2023-05-29T22:30:10.218Z,101561.69
2023-05-29T22:32:39.312Z,101564.75
2023-05-29T22:35:07.839Z,101563.94
2023-05-29T22:37:36.862Z,101565.09
2023-05-29T22:40:10.708Z,101571.78
2023-05-29T22:42:39.633Z,101567.81
2023-05-29T22:45:08.952Z,101570.16
2023-05-29T22:47:37.141Z,101565.34
2023-05-29T22:50:05.484Z,101569.06
2023-05-29T22:52:34.380Z,101567.06
2023-05-29T22:55:03.854Z,101572.34
2023-05-29T22:57:34.701Z,101572.59
2023-05-29T23:00:05.958Z,101570.69
2023-05-29T23:02:34.171Z,101566.84
2023-05-29T23:05:02.764Z,101569.16
2023-05-29T23:07:30.834Z,101569.72
2023-05-29T23:09:58.608Z,101576.81
2023-05-29T23:12:26.728Z,101572.53
2023-05-29T23:14:56.371Z,101583.91
2023-05-29T23:17:24.307Z,101585.38
2023-05-29T23:19:52.169Z,101588.84
2023-05-29T23:22:20.103Z,101593.47
2023-05-29T23:24:48.033Z,101591.13
2023-05-29T23:27:15.872Z,101590.94
2023-05-29T23:29:44.650Z,101592.53
2023-05-29T23:32:13.785Z,101598.53
2023-05-29T23:34:42.019Z,101603.25
2023-05-29T23:37:10.264Z,101606.34
2023-05-29T23:39:38.036Z,101606.22
2023-05-29T23:42:06.446Z,101608.72
2023-05-29T23:44:34.218Z,101599.91
2023-05-29T23:47:01.961Z,101605.44
2023-05-29T23:49:31.009Z,101599.53
2023-05-29T23:51:59.064Z,101605.47
2023-05-29T23:54:26.918Z,101605.94
2023-05-29T23:56:54.741Z,101599.91
2023-05-29T23:59:23.462Z,101604.03
